sensor_id;sensor_type;location;lat;lon;timestamp;pressure;altitude;pressure_sealevel;temperature;humidity
10518;BME280;5307;42.548;22.968;2022-10-30T00:00:40;94625.66;;;8.23;87.50
10518;BME280;5307;42.548;22.968;2022-10-30T00:03:10;94627.13;;;8.04;88.22
10518;BME280;5307;42.548;22.968;2022-10-30T00:05:40;94613.53;;;8.04;87.70
10518;BME280;5307;42.548;22.968;2022-10-30T00:08:08;94631.91;;;7.96;87.83
10518;BME280;5307;42.548;22.968;2022-10-30T00:10:37;94625.81;;;7.89;88.59
10518;BME280;5307;42.548;22.968;2022-10-30T00:13:04;94621.22;;;7.82;88.72
10518;BME280;5307;42.548;22.968;2022-10-30T00:15:31;94622.50;;;8.01;88.82
10518;BME280;5307;42.548;22.968;2022-10-30T00:17:58;94621.63;;;8.08;87.74
10518;BME280;5307;42.548;22.968;2022-10-30T00:20:24;94622.88;;;7.76;87.77
10518;BME280;5307;42.548;22.968;2022-10-30T00:22:51;94625.69;;;7.96;87.86
10518;BME280;5307;42.548;22.968;2022-10-30T00:25:18;94624.00;;;8.06;86.58
10518;BME280;5307;42.548;22.968;2022-10-30T00:27:46;94614.94;;;7.89;87.68
10518;BME280;5307;42.548;22.968;2022-10-30T00:30:13;94616.81;;;7.92;86.64
10518;BME280;5307;42.548;22.968;2022-10-30T00:32:40;94617.03;;;7.74;87.38
10518;BME280;5307;42.548;22.968;2022-10-30T00:35:08;94616.81;;;7.92;86.98
10518;BME280;5307;42.548;22.968;2022-10-30T00:37:35;94620.91;;;7.77;87.13
10518;BME280;5307;42.548;22.968;2022-10-30T00:40:03;94617.22;;;7.90;87.53
10518;BME280;5307;42.548;22.968;2022-10-30T00:42:31;94613.69;;;7.66;87.43
10518;BME280;5307;42.548;22.968;2022-10-30T00:44:59;94611.50;;;7.54;88.71
10518;BME280;5307;42.548;22.968;2022-10-30T00:47:31;94609.44;;;7.35;88.36
10518;BME280;5307;42.548;22.968;2022-10-30T00:50:02;94610.78;;;7.50;89.35
10518;BME280;5307;42.548;22.968;2022-10-30T00:52:35;94601.94;;;7.46;88.75
10518;BME280;5307;42.548;22.968;2022-10-30T00:55:06;94600.94;;;7.29;88.47
10518;BME280;5307;42.548;22.968;2022-10-30T00:57:34;94603.06;;;7.45;88.36
10518;BME280;5307;42.548;22.968;2022-10-30T01:00:04;94586.19;;;7.30;88.35
10518;BME280;5307;42.548;22.968;2022-10-30T01:02:32;94605.03;;;7.14;90.05
10518;BME280;5307;42.548;22.968;2022-10-30T01:04:59;94602.53;;;7.27;89.52
10518;BME280;5307;42.548;22.968;2022-10-30T01:07:26;94598.22;;;7.33;89.02
10518;BME280;5307;42.548;22.968;2022-10-30T01:09:53;94587.53;;;7.19;88.70
10518;BME280;5307;42.548;22.968;2022-10-30T01:12:20;94593.50;;;7.03;88.99
10518;BME280;5307;42.548;22.968;2022-10-30T01:14:49;94585.69;;;7.08;88.78
10518;BME280;5307;42.548;22.968;2022-10-30T01:17:56;94581.84;;;7.06;88.57
10518;BME280;5307;42.548;22.968;2022-10-30T01:20:41;94585.78;;;7.01;89.25
10518;BME280;5307;42.548;22.968;2022-10-30T01:23:23;94576.38;;;7.09;89.15
10518;BME280;5307;42.548;22.968;2022-10-30T01:26:00;94581.00;;;7.12;88.42
10518;BME280;5307;42.548;22.968;2022-10-30T01:28:49;94573.06;;;6.57;89.95
10518;BME280;5307;42.548;22.968;2022-10-30T01:31:31;94567.22;;;6.96;90.39
10518;BME280;5307;42.548;22.968;2022-10-30T01:34:16;94567.91;;;7.04;88.92
10518;BME280;5307;42.548;22.968;2022-10-30T01:36:48;94571.13;;;6.95;89.22
10518;BME280;5307;42.548;22.968;2022-10-30T01:39:21;94567.28;;;6.89;89.21
10518;BME280;5307;42.548;22.968;2022-10-30T01:41:48;94571.59;;;6.87;89.21
10518;BME280;5307;42.548;22.968;2022-10-30T01:44:18;94566.72;;;6.71;89.85
10518;BME280;5307;42.548;22.968;2022-10-30T01:47:00;94570.63;;;6.70;89.58
10518;BME280;5307;42.548;22.968;2022-10-30T01:49:47;94564.88;;;6.64;89.71
10518;BME280;5307;42.548;22.968;2022-10-30T01:52:27;94559.72;;;6.73;88.80
10518;BME280;5307;42.548;22.968;2022-10-30T01:55:07;94556.06;;;6.87;88.96
10518;BME280;5307;42.548;22.968;2022-10-30T01:57:41;94554.38;;;6.66;88.42
10518;BME280;5307;42.548;22.968;2022-10-30T02:00:13;94552.44;;;6.67;88.75
10518;BME280;5307;42.548;22.968;2022-10-30T02:02:41;94556.94;;;6.80;88.54
10518;BME280;5307;42.548;22.968;2022-10-30T02:05:12;94552.59;;;6.52;89.78
10518;BME280;5307;42.548;22.968;2022-10-30T02:07:43;94541.78;;;6.49;89.91
10518;BME280;5307;42.548;22.968;2022-10-30T02:10:10;94547.00;;;6.67;89.57
10518;BME280;5307;42.548;22.968;2022-10-30T02:12:37;94551.06;;;6.51;89.62
10518;BME280;5307;42.548;22.968;2022-10-30T02:15:05;94546.03;;;6.46;89.43
10518;BME280;5307;42.548;22.968;2022-10-30T02:17:31;94545.94;;;6.57;89.44
10518;BME280;5307;42.548;22.968;2022-10-30T02:19:58;94541.44;;;6.43;89.69
10518;BME280;5307;42.548;22.968;2022-10-30T02:22:26;94545.88;;;6.64;89.52
10518;BME280;5307;42.548;22.968;2022-10-30T02:24:53;94541.78;;;6.45;89.68
10518;BME280;5307;42.548;22.968;2022-10-30T02:27:20;94538.72;;;6.43;89.45
10518;BME280;5307;42.548;22.968;2022-10-30T02:29:47;94542.09;;;6.54;88.36
10518;BME280;5307;42.548;22.968;2022-10-30T02:32:14;94544.50;;;6.45;89.76
10518;BME280;5307;42.548;22.968;2022-10-30T02:34:41;94536.72;;;6.47;89.29
10518;BME280;5307;42.548;22.968;2022-10-30T02:37:08;94534.06;;;6.44;89.58
10518;BME280;5307;42.548;22.968;2022-10-30T02:39:37;94545.13;;;6.64;87.98
10518;BME280;5307;42.548;22.968;2022-10-30T02:42:04;94545.41;;;6.35;89.44
10518;BME280;5307;42.548;22.968;2022-10-30T02:44:30;94539.69;;;6.26;89.79
10518;BME280;5307;42.548;22.968;2022-10-30T02:46:57;94544.75;;;6.24;89.79
10518;BME280;5307;42.548;22.968;2022-10-30T02:49:24;94538.59;;;6.20;90.32
10518;BME280;5307;42.548;22.968;2022-10-30T02:51:51;94545.41;;;6.35;89.74
10518;BME280;5307;42.548;22.968;2022-10-30T02:54:18;94545.81;;;6.34;89.66
10518;BME280;5307;42.548;22.968;2022-10-30T02:56:46;94544.09;;;6.50;89.85
10518;BME280;5307;42.548;22.968;2022-10-30T02:59:13;94546.81;;;6.50;89.33
10518;BME280;5307;42.548;22.968;2022-10-30T03:01:39;94542.72;;;6.32;89.16
10518;BME280;5307;42.548;22.968;2022-10-30T03:04:06;94547.31;;;6.38;88.76
10518;BME280;5307;42.548;22.968;2022-10-30T03:06:33;94557.66;;;6.50;88.56
10518;BME280;5307;42.548;22.968;2022-10-30T03:09:00;94545.81;;;6.34;88.18
10518;BME280;5307;42.548;22.968;2022-10-30T03:11:26;94551.66;;;6.29;89.63
10518;BME280;5307;42.548;22.968;2022-10-30T03:13:55;94553.94;;;6.34;89.67
10518;BME280;5307;42.548;22.968;2022-10-30T03:16:23;94553.91;;;6.37;88.76
10518;BME280;5307;42.548;22.968;2022-10-30T03:18:50;94557.13;;;6.25;88.95
10518;BME280;5307;42.548;22.968;2022-10-30T03:21:20;94554.41;;;6.25;89.44
10518;BME280;5307;42.548;22.968;2022-10-30T03:23:47;94559.59;;;6.09;89.84
10518;BME280;5307;42.548;22.968;2022-10-30T03:26:15;94555.94;;;6.26;89.69
10518;BME280;5307;42.548;22.968;2022-10-30T03:28:42;94558.94;;;6.39;90.05
10518;BME280;5307;42.548;22.968;2022-10-30T03:31:11;94560.78;;;6.08;89.49
10518;BME280;5307;42.548;22.968;2022-10-30T03:33:39;94565.47;;;6.00;89.18
10518;BME280;5307;42.548;22.968;2022-10-30T03:36:07;94561.56;;;6.05;90.15
10518;BME280;5307;42.548;22.968;2022-10-30T03:38:35;94566.59;;;6.03;89.55
10518;BME280;5307;42.548;22.968;2022-10-30T03:41:03;94564.69;;;6.00;89.59
10518;BME280;5307;42.548;22.968;2022-10-30T03:43:30;94557.09;;;5.80;90.22
10518;BME280;5307;42.548;22.968;2022-10-30T03:45:57;94560.91;;;5.86;90.60
10518;BME280;5307;42.548;22.968;2022-10-30T03:48:27;94562.72;;;6.07;89.48
10518;BME280;5307;42.548;22.968;2022-10-30T03:50:56;94555.75;;;6.03;88.87
10518;BME280;5307;42.548;22.968;2022-10-30T03:53:23;94562.06;;;5.92;90.34
10518;BME280;5307;42.548;22.968;2022-10-30T03:55:50;94558.09;;;6.01;89.23
10518;BME280;5307;42.548;22.968;2022-10-30T03:58:18;94556.94;;;6.02;89.89
10518;BME280;5307;42.548;22.968;2022-10-30T04:00:44;94553.56;;;5.83;89.95
10518;BME280;5307;42.548;22.968;2022-10-30T04:03:11;94560.56;;;5.81;90.53
10518;BME280;5307;42.548;22.968;2022-10-30T04:05:39;94556.25;;;5.87;90.85
10518;BME280;5307;42.548;22.968;2022-10-30T04:08:10;94559.38;;;5.85;90.08
10518;BME280;5307;42.548;22.968;2022-10-30T04:10:41;94561.38;;;5.74;90.49
10518;BME280;5307;42.548;22.968;2022-10-30T04:13:09;94561.28;;;5.88;90.81
10518;BME280;5307;42.548;22.968;2022-10-30T04:15:36;94557.00;;;5.94;89.99
10518;BME280;5307;42.548;22.968;2022-10-30T04:18:03;94554.00;;;5.78;90.48
10518;BME280;5307;42.548;22.968;2022-10-30T04:20:30;94550.97;;;5.69;91.80
10518;BME280;5307;42.548;22.968;2022-10-30T04:23:00;94549.06;;;5.66;91.91
10518;BME280;5307;42.548;22.968;2022-10-30T04:25:27;94545.13;;;5.78;92.06
10518;BME280;5307;42.548;22.968;2022-10-30T04:27:54;94544.09;;;6.09;90.94
10518;BME280;5307;42.548;22.968;2022-10-30T04:30:22;94551.22;;;5.85;89.53
10518;BME280;5307;42.548;22.968;2022-10-30T04:32:50;94546.66;;;5.79;90.66
10518;BME280;5307;42.548;22.968;2022-10-30T04:35:19;94542.81;;;5.73;90.89
10518;BME280;5307;42.548;22.968;2022-10-30T04:37:51;94547.06;;;5.74;91.45
10518;BME280;5307;42.548;22.968;2022-10-30T04:40:19;94555.97;;;5.74;91.05
10518;BME280;5307;42.548;22.968;2022-10-30T04:42:46;94544.34;;;5.74;92.24
10518;BME280;5307;42.548;22.968;2022-10-30T04:45:13;94549.16;;;5.52;91.92
10518;BME280;5307;42.548;22.968;2022-10-30T04:47:40;94551.00;;;5.62;92.45
10518;BME280;5307;42.548;22.968;2022-10-30T04:50:08;94555.91;;;5.81;91.75
10518;BME280;5307;42.548;22.968;2022-10-30T04:52:35;94551.66;;;5.80;90.87
10518;BME280;5307;42.548;22.968;2022-10-30T04:55:02;94555.63;;;5.69;91.03
10518;BME280;5307;42.548;22.968;2022-10-30T04:57:30;94559.22;;;5.48;91.16
10518;BME280;5307;42.548;22.968;2022-10-30T04:59:57;94559.34;;;5.30;90.90
10518;BME280;5307;42.548;22.968;2022-10-30T05:02:24;94561.97;;;5.44;88.88
10518;BME280;5307;42.548;22.968;2022-10-30T05:04:51;94565.59;;;5.23;88.82
10518;BME280;5307;42.548;22.968;2022-10-30T05:07:18;94562.19;;;5.09;88.71
10518;BME280;5307;42.548;22.968;2022-10-30T05:09:44;94567.19;;;5.10;90.60
10518;BME280;5307;42.548;22.968;2022-10-30T05:12:11;94568.75;;;5.04;90.65
10518;BME280;5307;42.548;22.968;2022-10-30T05:14:39;94576.75;;;5.36;89.85
10518;BME280;5307;42.548;22.968;2022-10-30T05:17:06;94571.28;;;5.40;88.80
10518;BME280;5307;42.548;22.968;2022-10-30T05:19:33;94570.94;;;5.30;88.41
10518;BME280;5307;42.548;22.968;2022-10-30T05:21:59;94561.78;;;5.10;88.99
10518;BME280;5307;42.548;22.968;2022-10-30T05:24:26;94573.22;;;5.43;88.96
10518;BME280;5307;42.548;22.968;2022-10-30T05:26:53;94573.53;;;5.48;88.70
10518;BME280;5307;42.548;22.968;2022-10-30T05:29:20;94578.63;;;5.43;88.38
10518;BME280;5307;42.548;22.968;2022-10-30T05:31:48;94577.81;;;5.46;88.84
10518;BME280;5307;42.548;22.968;2022-10-30T05:34:15;94577.44;;;5.51;89.14
10518;BME280;5307;42.548;22.968;2022-10-30T05:36:42;94576.66;;;5.47;89.18
10518;BME280;5307;42.548;22.968;2022-10-30T05:39:08;94578.59;;;5.46;89.51
10518;BME280;5307;42.548;22.968;2022-10-30T05:41:35;94580.16;;;5.44;89.60
10518;BME280;5307;42.548;22.968;2022-10-30T05:44:02;94580.41;;;5.67;89.85
10518;BME280;5307;42.548;22.968;2022-10-30T05:46:29;94585.72;;;5.81;89.32
10518;BME280;5307;42.548;22.968;2022-10-30T05:48:57;94588.88;;;5.73;89.44
10518;BME280;5307;42.548;22.968;2022-10-30T05:51:25;94567.63;;;5.68;90.09
10518;BME280;5307;42.548;22.968;2022-10-30T05:53:51;94587.28;;;5.82;90.21
10518;BME280;5307;42.548;22.968;2022-10-30T05:56:18;94586.81;;;5.94;90.75
10518;BME280;5307;42.548;22.968;2022-10-30T05:58:47;94584.97;;;6.29;89.89
10518;BME280;5307;42.548;22.968;2022-10-30T06:01:14;94587.41;;;6.16;90.05
10518;BME280;5307;42.548;22.968;2022-10-30T06:03:41;94585.00;;;6.25;90.44
10518;BME280;5307;42.548;22.968;2022-10-30T06:06:10;94584.06;;;6.43;89.98
10518;BME280;5307;42.548;22.968;2022-10-30T06:08:37;94582.56;;;6.38;89.63
10518;BME280;5307;42.548;22.968;2022-10-30T06:11:03;94586.91;;;6.70;89.85
10518;BME280;5307;42.548;22.968;2022-10-30T06:13:30;94584.41;;;6.86;89.07
10518;BME280;5307;42.548;22.968;2022-10-30T06:15:57;94584.50;;;6.79;88.83
10518;BME280;5307;42.548;22.968;2022-10-30T06:18:24;94593.66;;;6.89;88.67
10518;BME280;5307;42.548;22.968;2022-10-30T06:20:50;94590.25;;;6.84;87.83
10518;BME280;5307;42.548;22.968;2022-10-30T06:23:19;94580.56;;;6.83;87.48
10518;BME280;5307;42.548;22.968;2022-10-30T06:25:46;94581.69;;;7.20;86.73
10518;BME280;5307;42.548;22.968;2022-10-30T06:28:13;94578.72;;;7.38;85.33
10518;BME280;5307;42.548;22.968;2022-10-30T06:30:40;94586.00;;;7.44;84.97
10518;BME280;5307;42.548;22.968;2022-10-30T06:33:08;94588.59;;;7.55;84.08
10518;BME280;5307;42.548;22.968;2022-10-30T06:35:35;94571.97;;;7.50;83.24
10518;BME280;5307;42.548;22.968;2022-10-30T06:38:02;94581.91;;;7.60;82.93
10518;BME280;5307;42.548;22.968;2022-10-30T06:40:30;94582.75;;;7.84;83.68
10518;BME280;5307;42.548;22.968;2022-10-30T06:42:57;94580.59;;;7.71;83.10
10518;BME280;5307;42.548;22.968;2022-10-30T06:45:24;94577.22;;;8.14;84.60
10518;BME280;5307;42.548;22.968;2022-10-30T06:47:51;94577.78;;;8.52;83.36
10518;BME280;5307;42.548;22.968;2022-10-30T06:50:19;94579.81;;;8.68;81.62
10518;BME280;5307;42.548;22.968;2022-10-30T06:52:47;94576.84;;;9.22;81.00
10518;BME280;5307;42.548;22.968;2022-10-30T06:55:14;94573.19;;;9.65;78.45
10518;BME280;5307;42.548;22.968;2022-10-30T06:57:42;94569.06;;;9.76;75.24
10518;BME280;5307;42.548;22.968;2022-10-30T07:00:10;94578.63;;;10.01;75.06
10518;BME280;5307;42.548;22.968;2022-10-30T07:02:37;94574.81;;;10.47;73.10
10518;BME280;5307;42.548;22.968;2022-10-30T07:05:04;94570.91;;;10.32;72.19
10518;BME280;5307;42.548;22.968;2022-10-30T07:07:33;94570.53;;;10.91;71.45
10518;BME280;5307;42.548;22.968;2022-10-30T07:10:00;94576.19;;;11.13;70.77
10518;BME280;5307;42.548;22.968;2022-10-30T07:12:27;94563.81;;;11.63;69.34
10518;BME280;5307;42.548;22.968;2022-10-30T07:14:55;94571.94;;;12.05;68.35
10518;BME280;5307;42.548;22.968;2022-10-30T07:17:22;94563.59;;;12.34;66.21
10518;BME280;5307;42.548;22.968;2022-10-30T07:19:48;94560.97;;;11.67;67.93
10518;BME280;5307;42.548;22.968;2022-10-30T07:22:15;94559.97;;;11.60;68.88
10518;BME280;5307;42.548;22.968;2022-10-30T07:24:42;94559.06;;;12.53;66.88
10518;BME280;5307;42.548;22.968;2022-10-30T07:27:09;94548.56;;;12.38;66.62
10518;BME280;5307;42.548;22.968;2022-10-30T07:29:36;94546.94;;;12.41;65.31
10518;BME280;5307;42.548;22.968;2022-10-30T07:32:04;94545.56;;;11.98;67.44
10518;BME280;5307;42.548;22.968;2022-10-30T07:34:31;94549.25;;;12.30;66.61
10518;BME280;5307;42.548;22.968;2022-10-30T07:36:58;94540.19;;;12.89;65.29
10518;BME280;5307;42.548;22.968;2022-10-30T07:39:25;94531.25;;;12.41;65.27
10518;BME280;5307;42.548;22.968;2022-10-30T07:41:53;94536.66;;;13.23;63.72
10518;BME280;5307;42.548;22.968;2022-10-30T07:44:20;94547.34;;;12.87;64.61
10518;BME280;5307;42.548;22.968;2022-10-30T07:46:48;94543.84;;;13.83;63.49
10518;BME280;5307;42.548;22.968;2022-10-30T07:49:16;94537.22;;;13.71;63.09
10518;BME280;5307;42.548;22.968;2022-10-30T07:51:43;94543.81;;;13.08;64.16
10518;BME280;5307;42.548;22.968;2022-10-30T07:54:09;94536.06;;;14.31;62.08
10518;BME280;5307;42.548;22.968;2022-10-30T07:56:36;94539.84;;;14.82;60.45
10518;BME280;5307;42.548;22.968;2022-10-30T07:59:03;94530.06;;;15.09;59.24
10518;BME280;5307;42.548;22.968;2022-10-30T08:01:30;94538.38;;;14.41;61.19
10518;BME280;5307;42.548;22.968;2022-10-30T08:03:57;94531.03;;;14.29;61.54
10518;BME280;5307;42.548;22.968;2022-10-30T08:06:25;94526.34;;;15.30;59.04
10518;BME280;5307;42.548;22.968;2022-10-30T08:08:52;94522.25;;;14.89;60.38
10518;BME280;5307;42.548;22.968;2022-10-30T08:11:18;94515.28;;;15.58;59.93
10518;BME280;5307;42.548;22.968;2022-10-30T08:13:45;94517.59;;;15.59;58.11
10518;BME280;5307;42.548;22.968;2022-10-30T08:16:12;94506.09;;;15.61;58.06
10518;BME280;5307;42.548;22.968;2022-10-30T08:18:39;94494.06;;;15.91;58.16
10518;BME280;5307;42.548;22.968;2022-10-30T08:21:06;94500.94;;;15.96;57.77
10518;BME280;5307;42.548;22.968;2022-10-30T08:23:35;94502.19;;;15.86;57.62
10518;BME280;5307;42.548;22.968;2022-10-30T08:26:01;94493.34;;;16.39;57.13
10518;BME280;5307;42.548;22.968;2022-10-30T08:28:28;94502.09;;;16.37;56.39
10518;BME280;5307;42.548;22.968;2022-10-30T08:30:57;94494.69;;;16.43;55.49
10518;BME280;5307;42.548;22.968;2022-10-30T08:33:23;94489.03;;;17.39;53.10
10518;BME280;5307;42.548;22.968;2022-10-30T08:35:51;94484.34;;;17.15;53.69
10518;BME280;5307;42.548;22.968;2022-10-30T08:38:19;94489.22;;;17.20;53.88
10518;BME280;5307;42.548;22.968;2022-10-30T08:40:47;94486.75;;;17.37;53.54
10518;BME280;5307;42.548;22.968;2022-10-30T08:43:14;94491.31;;;17.26;56.39
10518;BME280;5307;42.548;22.968;2022-10-30T08:45:41;94484.78;;;16.84;54.85
10518;BME280;5307;42.548;22.968;2022-10-30T08:48:09;94484.72;;;17.08;55.74
10518;BME280;5307;42.548;22.968;2022-10-30T08:50:37;94484.03;;;16.99;54.77
10518;BME280;5307;42.548;22.968;2022-10-30T08:53:05;94479.72;;;16.83;55.93
10518;BME280;5307;42.548;22.968;2022-10-30T08:55:33;94477.22;;;17.24;55.60
10518;BME280;5307;42.548;22.968;2022-10-30T08:58:01;94481.50;;;17.25;54.57
10518;BME280;5307;42.548;22.968;2022-10-30T09:00:28;94472.66;;;17.35;53.48
10518;BME280;5307;42.548;22.968;2022-10-30T09:02:55;94474.63;;;17.64;53.08
10518;BME280;5307;42.548;22.968;2022-10-30T09:05:22;94471.22;;;17.55;53.56
10518;BME280;5307;42.548;22.968;2022-10-30T09:07:54;94469.78;;;17.89;51.82
10518;BME280;5307;42.548;22.968;2022-10-30T09:10:21;94470.59;;;17.95;52.42
10518;BME280;5307;42.548;22.968;2022-10-30T09:12:53;94469.28;;;18.25;51.89
10518;BME280;5307;42.548;22.968;2022-10-30T09:15:21;94466.34;;;18.49;51.69
10518;BME280;5307;42.548;22.968;2022-10-30T09:17:54;94460.44;;;18.42;50.60
10518;BME280;5307;42.548;22.968;2022-10-30T09:20:20;94457.09;;;18.73;49.57
10518;BME280;5307;42.548;22.968;2022-10-30T09:22:47;94447.47;;;18.48;50.50
10518;BME280;5307;42.548;22.968;2022-10-30T09:25:15;94454.44;;;18.84;50.21
10518;BME280;5307;42.548;22.968;2022-10-30T09:27:42;94449.72;;;19.68;49.26
10518;BME280;5307;42.548;22.968;2022-10-30T09:30:10;94449.53;;;19.45;48.77
10518;BME280;5307;42.548;22.968;2022-10-30T09:32:39;94442.00;;;20.20;47.84
10518;BME280;5307;42.548;22.968;2022-10-30T09:35:07;94443.31;;;19.56;48.55
10518;BME280;5307;42.548;22.968;2022-10-30T09:37:34;94440.16;;;20.06;48.33
10518;BME280;5307;42.548;22.968;2022-10-30T09:40:01;94442.22;;;19.74;47.79
10518;BME280;5307;42.548;22.968;2022-10-30T09:42:40;94441.09;;;19.60;47.94
10518;BME280;5307;42.548;22.968;2022-10-30T09:45:39;94440.31;;;19.91;48.61
10518;BME280;5307;42.548;22.968;2022-10-30T09:48:36;94433.09;;;20.05;47.02
10518;BME280;5307;42.548;22.968;2022-10-30T09:51:15;94434.22;;;20.72;44.59
10518;BME280;5307;42.548;22.968;2022-10-30T09:53:51;94423.78;;;20.51;45.84
10518;BME280;5307;42.548;22.968;2022-10-30T09:56:26;94425.63;;;20.22;47.58
10518;BME280;5307;42.548;22.968;2022-10-30T09:59:05;94406.88;;;21.42;44.92
10518;BME280;5307;42.548;22.968;2022-10-30T10:01:40;94402.03;;;21.53;45.51
10518;BME280;5307;42.548;22.968;2022-10-30T10:04:22;94398.41;;;20.97;46.28
10518;BME280;5307;42.548;22.968;2022-10-30T10:06:53;94397.19;;;20.98;45.34
10518;BME280;5307;42.548;22.968;2022-10-30T10:09:23;94398.97;;;21.12;45.23
10518;BME280;5307;42.548;22.968;2022-10-30T10:11:53;94375.53;;;21.41;45.30
10518;BME280;5307;42.548;22.968;2022-10-30T10:14:24;94381.28;;;21.93;44.82
10518;BME280;5307;42.548;22.968;2022-10-30T10:16:53;94380.16;;;22.41;42.22
10518;BME280;5307;42.548;22.968;2022-10-30T10:19:27;94356.19;;;22.27;42.80
10518;BME280;5307;42.548;22.968;2022-10-30T10:21:56;94372.16;;;22.10;41.94
10518;BME280;5307;42.548;22.968;2022-10-30T10:24:25;94360.34;;;21.53;40.46
10518;BME280;5307;42.548;22.968;2022-10-30T10:26:58;94352.47;;;21.97;39.54
10518;BME280;5307;42.548;22.968;2022-10-30T10:29:31;94352.44;;;22.02;40.49
10518;BME280;5307;42.548;22.968;2022-10-30T10:32:14;94354.03;;;21.64;41.65
10518;BME280;5307;42.548;22.968;2022-10-30T10:34:56;94348.38;;;22.03;41.20
10518;BME280;5307;42.548;22.968;2022-10-30T10:37:38;94337.41;;;23.27;40.26
10518;BME280;5307;42.548;22.968;2022-10-30T10:40:18;94343.00;;;22.80;40.20
10518;BME280;5307;42.548;22.968;2022-10-30T10:42:56;94331.56;;;22.95;37.00
10518;BME280;5307;42.548;22.968;2022-10-30T10:45:32;94336.72;;;22.27;34.60
10518;BME280;5307;42.548;22.968;2022-10-30T10:50:57;94334.66;;;22.33;35.30
10518;BME280;5307;42.548;22.968;2022-10-30T10:53:30;94317.03;;;22.03;34.80
10518;BME280;5307;42.548;22.968;2022-10-30T10:56:00;94325.63;;;22.16;34.93
10518;BME280;5307;42.548;22.968;2022-10-30T10:58:30;94308.34;;;22.81;37.67
10518;BME280;5307;42.548;22.968;2022-10-30T11:00:58;94319.03;;;22.66;34.91
10518;BME280;5307;42.548;22.968;2022-10-30T11:03:31;94316.47;;;22.21;34.72
10518;BME280;5307;42.548;22.968;2022-10-30T11:06:16;94310.88;;;22.85;36.30
10518;BME280;5307;42.548;22.968;2022-10-30T11:08:44;94310.44;;;22.64;34.13
10518;BME280;5307;42.548;22.968;2022-10-30T11:11:11;94316.34;;;22.49;36.12
10518;BME280;5307;42.548;22.968;2022-10-30T11:13:39;94311.31;;;22.47;36.15
10518;BME280;5307;42.548;22.968;2022-10-30T11:16:17;94311.13;;;22.34;34.44
10518;BME280;5307;42.548;22.968;2022-10-30T11:18:51;94304.50;;;22.43;35.18
10518;BME280;5307;42.548;22.968;2022-10-30T11:21:22;94287.38;;;22.28;36.09
10518;BME280;5307;42.548;22.968;2022-10-30T11:23:55;94295.22;;;22.29;36.26
10518;BME280;5307;42.548;22.968;2022-10-30T11:26:28;94290.81;;;22.45;36.27
10518;BME280;5307;42.548;22.968;2022-10-30T11:28:58;94285.31;;;22.39;35.74
10518;BME280;5307;42.548;22.968;2022-10-30T11:31:29;94291.34;;;22.43;36.06
10518;BME280;5307;42.548;22.968;2022-10-30T11:34:24;94281.63;;;22.14;35.91
10518;BME280;5307;42.548;22.968;2022-10-30T11:36:55;94284.91;;;22.07;33.28
10518;BME280;5307;42.548;22.968;2022-10-30T11:39:23;94273.03;;;22.12;33.42
10518;BME280;5307;42.548;22.968;2022-10-30T11:41:55;94282.09;;;22.18;33.22
10518;BME280;5307;42.548;22.968;2022-10-30T11:44:25;94270.69;;;22.28;35.10
10518;BME280;5307;42.548;22.968;2022-10-30T11:46:53;94275.53;;;22.16;34.13
10518;BME280;5307;42.548;22.968;2022-10-30T11:49:31;94274.09;;;21.81;33.74
10518;BME280;5307;42.548;22.968;2022-10-30T11:52:00;94257.22;;;21.74;33.72
10518;BME280;5307;42.548;22.968;2022-10-30T11:54:27;94256.88;;;22.00;34.41
10518;BME280;5307;42.548;22.968;2022-10-30T11:56:55;94262.94;;;21.92;38.35
10518;BME280;5307;42.548;22.968;2022-10-30T11:59:23;94250.31;;;21.91;36.63
10518;BME280;5307;42.548;22.968;2022-10-30T12:01:59;94258.13;;;21.99;36.99
10518;BME280;5307;42.548;22.968;2022-10-30T12:04:27;94250.28;;;22.03;37.72
10518;BME280;5307;42.548;22.968;2022-10-30T12:07:10;94246.81;;;21.85;35.61
10518;BME280;5307;42.548;22.968;2022-10-30T12:09:44;94241.72;;;21.89;36.29
10518;BME280;5307;42.548;22.968;2022-10-30T12:12:18;94246.53;;;21.89;35.92
10518;BME280;5307;42.548;22.968;2022-10-30T12:14:47;94247.28;;;21.89;36.05
10518;BME280;5307;42.548;22.968;2022-10-30T12:17:15;94240.19;;;22.00;35.42
10518;BME280;5307;42.548;22.968;2022-10-30T12:19:48;94238.91;;;21.95;35.25
10518;BME280;5307;42.548;22.968;2022-10-30T12:22:29;94230.84;;;21.97;35.25
10518;BME280;5307;42.548;22.968;2022-10-30T12:24:57;94229.34;;;21.90;34.93
10518;BME280;5307;42.548;22.968;2022-10-30T12:27:26;94225.63;;;21.71;35.03
10518;BME280;5307;42.548;22.968;2022-10-30T12:30:04;94229.34;;;21.90;37.01
10518;BME280;5307;42.548;22.968;2022-10-30T12:32:40;94220.28;;;21.79;35.81
10518;BME280;5307;42.548;22.968;2022-10-30T12:35:17;94221.22;;;21.92;35.38
10518;BME280;5307;42.548;22.968;2022-10-30T12:37:49;94230.13;;;21.80;36.46
10518;BME280;5307;42.548;22.968;2022-10-30T12:40:20;94226.28;;;21.94;36.67
10518;BME280;5307;42.548;22.968;2022-10-30T12:42:54;94229.13;;;21.77;36.64
10518;BME280;5307;42.548;22.968;2022-10-30T12:45:28;94223.34;;;21.75;37.37
10518;BME280;5307;42.548;22.968;2022-10-30T12:48:00;94220.59;;;21.70;36.36
10518;BME280;5307;42.548;22.968;2022-10-30T12:50:31;94223.88;;;21.68;38.59
10518;BME280;5307;42.548;22.968;2022-10-30T12:53:05;94214.81;;;21.56;37.65
10518;BME280;5307;42.548;22.968;2022-10-30T12:55:36;94218.50;;;21.87;37.60
10518;BME280;5307;42.548;22.968;2022-10-30T12:58:12;94209.47;;;21.64;38.40
10518;BME280;5307;42.548;22.968;2022-10-30T13:00:52;94214.50;;;21.71;37.71
10518;BME280;5307;42.548;22.968;2022-10-30T13:03:27;94206.44;;;21.62;37.03
10518;BME280;5307;42.548;22.968;2022-10-30T13:05:59;94200.09;;;21.67;37.71
10518;BME280;5307;42.548;22.968;2022-10-30T13:08:31;94208.25;;;21.48;37.12
10518;BME280;5307;42.548;22.968;2022-10-30T13:13:32;94198.63;;;21.60;37.57
10518;BME280;5307;42.548;22.968;2022-10-30T13:16:07;94207.72;;;21.61;37.19
10518;BME280;5307;42.548;22.968;2022-10-30T13:18:36;94203.94;;;21.53;37.20
10518;BME280;5307;42.548;22.968;2022-10-30T13:21:18;94194.31;;;21.65;36.95
10518;BME280;5307;42.548;22.968;2022-10-30T13:23:51;94196.88;;;21.57;37.79